Cranbrook Airport
CYXC : now visible

Airfield :











YOU CAN JOIN US ON...

 
LOGIN :

Register | Disclaimer

   EN    FR    IT 

 









Legend :    VFR   Marginal VFR   IFR   Intensive IFR   Very Intensive IFR
Visi :
Ceiling :
>= 8 km
>= 3000ft
5 to 8 km
1000 to 3000 ft
1500m to 5 km
500 to 1000 ft
800 to 1500m
200 to 500 ft
< 800m
< 200 ft
Symbols :   Thunderstorms  Fog  Heavy snow  Heavy precipitations  Wind > 20 kt






- Airport Elevation : 3082 ft
- IATA code : YXC


CYXC - Cranbrook

CURRENT METAR :
  • 192200Z 02007KT 5SM -RA BR BKN007 OVC010 02/01 A2970 RMK SC6SC2 SLP084

EXPIRED METARs :
  • 192138Z 02006KT 5SM -RA BR BKN008 OVC032 02/01 A2969 RMK SC5SC3 SLP079
  • 192100Z 36009G15KT 8SM -RA SCT010 OVC034 02/01 A2967 RMK SC3SC5 SLP074
  • 192026Z 34008KT 310V010 7SM -RA SCT009 OVC032 02/01 A2966 RMK SC4SC4 SLP072
  • 192000Z 35006KT 5SM -RA BR SCT005 BKN010 OVC028 02/01 A2966 RMK SC3SC2SC3 VIS N HIER SLP070

TAF AMD TAF CYXC
Valid from the 19 at 21:00 until the 20 at 07:00 UTC


192141Z 1921/2007 02008KT 6SM -RA SCT008 OVC030
TEMPO 1921/2003 3SM -RASN BR BKN008 BKN020 OVC030
FM200300 01005KT 2SM -RASN BR BKN008 BKN040 OVC080
TEMPO 2003/2007 6SM -RASN BR SCT008 BKN040 RMK NXT FCST BY 200100Z



MET'MAP, your aeronautical weather chart ! - Copyright ORBIFLY December 2007 - Disclaimer

ORBIFLY MET'MAP TEAM :

Programming & Development : Alexandra Zaïnal
Concept & Development : Baudouin d'Aumeries
Co-Development & Prog : Marc-Olivier Méhu
Technical & hardware support : Manuel Goepfert

Contact : metmap@orbifly.com




SOURCES & CREDITS :

   NOAA       Earth
Advisory